Terminal Aerodrome Forecast
Issued by NWS Kansas City/Pleasant Hill, MO

Home | Current Version | Previous Version | Text Only | Print | Product List | Glossary On
Versions: 1 2 3 4 5 6 7 8 9 10 11 12 13
117
FTUS43 KEAX 200520
TAFMCI
TAF
KMCI 200520Z 2006/2106 16007KT P6SM SCT035 BKN200
     FM201000 17010KT 6SM -SHRA BR OVC025
     FM201500 18011KT P6SM VCSH OVC015
     FM201900 21012KT P6SM BKN060
     FM210200 28007KT P6SM SCT200=

USA.gov is the U.S. government's official web portal to all federal, state and local government web resources and services.